sensor_id;sensor_type;location;lat;lon;timestamp;P1;durP1;ratioP1;P2;durP2;ratioP2
11139;SDS011;5624;49.388;11.350;2023-05-13T00:00:29;4.37;;;3.10;;
11139;SDS011;5624;49.388;11.350;2023-05-13T00:02:55;4.40;;;3.60;;
11139;SDS011;5624;49.388;11.350;2023-05-13T00:05:21;4.37;;;3.47;;
11139;SDS011;5624;49.388;11.350;2023-05-13T00:07:46;3.70;;;2.70;;
11139;SDS011;5624;49.388;11.350;2023-05-13T00:10:12;5.17;;;3.40;;
11139;SDS011;5624;49.388;11.350;2023-05-13T00:12:38;3.70;;;2.90;;
11139;SDS011;5624;49.388;11.350;2023-05-13T00:15:03;4.53;;;3.20;;
11139;SDS011;5624;49.388;11.350;2023-05-13T00:17:29;5.43;;;3.30;;
11139;SDS011;5624;49.388;11.350;2023-05-13T00:19:55;4.57;;;3.20;;
11139;SDS011;5624;49.388;11.350;2023-05-13T00:22:20;5.17;;;3.90;;
11139;SDS011;5624;49.388;11.350;2023-05-13T00:24:46;4.37;;;3.57;;
11139;SDS011;5624;49.388;11.350;2023-05-13T00:27:12;3.90;;;3.20;;
11139;SDS011;5624;49.388;11.350;2023-05-13T00:29:38;6.33;;;3.23;;
11139;SDS011;5624;49.388;11.350;2023-05-13T00:32:03;6.37;;;3.23;;
11139;SDS011;5624;49.388;11.350;2023-05-13T00:34:30;4.90;;;3.10;;
11139;SDS011;5624;49.388;11.350;2023-05-13T00:36:55;3.70;;;3.07;;
11139;SDS011;5624;49.388;11.350;2023-05-13T00:39:21;6.33;;;3.70;;
11139;SDS011;5624;49.388;11.350;2023-05-13T00:41:46;4.90;;;3.40;;
11139;SDS011;5624;49.388;11.350;2023-05-13T00:44:12;6.00;;;3.30;;
11139;SDS011;5624;49.388;11.350;2023-05-13T00:46:38;5.40;;;3.17;;
11139;SDS011;5624;49.388;11.350;2023-05-13T00:49:03;4.13;;;3.30;;
11139;SDS011;5624;49.388;11.350;2023-05-13T00:51:30;6.40;;;3.90;;
11139;SDS011;5624;49.388;11.350;2023-05-13T00:53:57;5.53;;;3.93;;
11139;SDS011;5624;49.388;11.350;2023-05-13T00:56:23;5.00;;;3.60;;
11139;SDS011;5624;49.388;11.350;2023-05-13T00:58:50;4.00;;;3.30;;
11139;SDS011;5624;49.388;11.350;2023-05-13T01:06:52;7.83;;;3.83;;
11139;SDS011;5624;49.388;11.350;2023-05-13T01:12:31;6.50;;;3.90;;
11139;SDS011;5624;49.388;11.350;2023-05-13T01:17:31;5.07;;;3.70;;
11139;SDS011;5624;49.388;11.350;2023-05-13T01:20:04;5.47;;;4.07;;
11139;SDS011;5624;49.388;11.350;2023-05-13T01:22:32;5.50;;;3.60;;
11139;SDS011;5624;49.388;11.350;2023-05-13T01:24:57;5.43;;;3.50;;
11139;SDS011;5624;49.388;11.350;2023-05-13T01:27:23;6.13;;;3.70;;
11139;SDS011;5624;49.388;11.350;2023-05-13T01:29:49;5.37;;;3.83;;
11139;SDS011;5624;49.388;11.350;2023-05-13T01:32:16;5.03;;;3.77;;
11139;SDS011;5624;49.388;11.350;2023-05-13T01:34:42;5.80;;;3.97;;
11139;SDS011;5624;49.388;11.350;2023-05-13T01:37:09;5.60;;;4.90;;
11139;SDS011;5624;49.388;11.350;2023-05-13T01:39:35;5.10;;;3.63;;
11139;SDS011;5624;49.388;11.350;2023-05-13T01:42:02;5.87;;;3.83;;
11139;SDS011;5624;49.388;11.350;2023-05-13T01:44:28;5.50;;;4.33;;
11139;SDS011;5624;49.388;11.350;2023-05-13T01:46:53;4.87;;;4.23;;
11139;SDS011;5624;49.388;11.350;2023-05-13T01:49:19;5.47;;;4.20;;
11139;SDS011;5624;49.388;11.350;2023-05-13T01:51:45;5.73;;;3.73;;
11139;SDS011;5624;49.388;11.350;2023-05-13T01:54:10;4.27;;;3.57;;
11139;SDS011;5624;49.388;11.350;2023-05-13T01:56:36;6.13;;;4.27;;
11139;SDS011;5624;49.388;11.350;2023-05-13T01:59:02;5.93;;;4.07;;
11139;SDS011;5624;49.388;11.350;2023-05-13T02:01:28;4.83;;;4.00;;
11139;SDS011;5624;49.388;11.350;2023-05-13T02:03:55;6.47;;;3.73;;
11139;SDS011;5624;49.388;11.350;2023-05-13T02:06:21;6.60;;;3.80;;
11139;SDS011;5624;49.388;11.350;2023-05-13T02:08:47;8.37;;;4.07;;
11139;SDS011;5624;49.388;11.350;2023-05-13T02:11:13;5.70;;;4.07;;
11139;SDS011;5624;49.388;11.350;2023-05-13T02:13:38;5.27;;;4.03;;
11139;SDS011;5624;49.388;11.350;2023-05-13T02:16:04;4.73;;;3.83;;
11139;SDS011;5624;49.388;11.350;2023-05-13T02:18:29;5.73;;;4.10;;
11139;SDS011;5624;49.388;11.350;2023-05-13T02:20:55;5.93;;;3.60;;
11139;SDS011;5624;49.388;11.350;2023-05-13T02:23:21;5.73;;;4.03;;
11139;SDS011;5624;49.388;11.350;2023-05-13T02:25:47;5.30;;;3.73;;
11139;SDS011;5624;49.388;11.350;2023-05-13T02:28:12;4.73;;;3.80;;
11139;SDS011;5624;49.388;11.350;2023-05-13T02:30:38;4.70;;;3.53;;
11139;SDS011;5624;49.388;11.350;2023-05-13T02:33:05;6.33;;;4.17;;
11139;SDS011;5624;49.388;11.350;2023-05-13T02:35:31;6.10;;;3.80;;
11139;SDS011;5624;49.388;11.350;2023-05-13T02:37:56;4.50;;;3.60;;
11139;SDS011;5624;49.388;11.350;2023-05-13T02:40:22;6.20;;;3.87;;
11139;SDS011;5624;49.388;11.350;2023-05-13T02:42:47;5.93;;;4.03;;
11139;SDS011;5624;49.388;11.350;2023-05-13T02:45:13;5.80;;;3.80;;
11139;SDS011;5624;49.388;11.350;2023-05-13T02:47:39;4.77;;;4.20;;
11139;SDS011;5624;49.388;11.350;2023-05-13T02:50:05;4.90;;;3.63;;
11139;SDS011;5624;49.388;11.350;2023-05-13T02:52:33;6.83;;;4.30;;
11139;SDS011;5624;49.388;11.350;2023-05-13T02:55:00;5.13;;;3.60;;
11139;SDS011;5624;49.388;11.350;2023-05-13T02:57:30;6.33;;;3.50;;
11139;SDS011;5624;49.388;11.350;2023-05-13T02:59:56;6.00;;;4.70;;
11139;SDS011;5624;49.388;11.350;2023-05-13T03:02:21;4.03;;;3.63;;
11139;SDS011;5624;49.388;11.350;2023-05-13T03:04:47;5.77;;;4.50;;
11139;SDS011;5624;49.388;11.350;2023-05-13T03:07:13;6.20;;;4.47;;
11139;SDS011;5624;49.388;11.350;2023-05-13T03:09:38;7.47;;;4.03;;
11139;SDS011;5624;49.388;11.350;2023-05-13T03:12:06;5.00;;;4.43;;
11139;SDS011;5624;49.388;11.350;2023-05-13T03:14:32;7.23;;;4.03;;
11139;SDS011;5624;49.388;11.350;2023-05-13T03:17:03;6.43;;;4.23;;
11139;SDS011;5624;49.388;11.350;2023-05-13T03:19:29;6.03;;;4.00;;
11139;SDS011;5624;49.388;11.350;2023-05-13T03:21:55;5.10;;;3.93;;
11139;SDS011;5624;49.388;11.350;2023-05-13T03:24:21;4.50;;;3.87;;
11139;SDS011;5624;49.388;11.350;2023-05-13T03:26:46;5.03;;;4.37;;
11139;SDS011;5624;49.388;11.350;2023-05-13T03:29:13;7.73;;;4.13;;
11139;SDS011;5624;49.388;11.350;2023-05-13T03:31:38;4.47;;;3.60;;
11139;SDS011;5624;49.388;11.350;2023-05-13T03:34:04;5.37;;;4.10;;
11139;SDS011;5624;49.388;11.350;2023-05-13T03:36:30;5.47;;;4.27;;
11139;SDS011;5624;49.388;11.350;2023-05-13T03:38:56;5.67;;;3.90;;
11139;SDS011;5624;49.388;11.350;2023-05-13T03:41:21;5.00;;;3.90;;
11139;SDS011;5624;49.388;11.350;2023-05-13T03:43:47;5.53;;;4.17;;
11139;SDS011;5624;49.388;11.350;2023-05-13T03:46:13;5.20;;;4.30;;
11139;SDS011;5624;49.388;11.350;2023-05-13T03:48:38;8.43;;;4.77;;
11139;SDS011;5624;49.388;11.350;2023-05-13T03:51:04;5.80;;;4.13;;
11139;SDS011;5624;49.388;11.350;2023-05-13T03:53:30;5.03;;;4.53;;
11139;SDS011;5624;49.388;11.350;2023-05-13T03:55:56;5.40;;;4.40;;
11139;SDS011;5624;49.388;11.350;2023-05-13T03:58:21;5.40;;;3.93;;
11139;SDS011;5624;49.388;11.350;2023-05-13T04:00:47;6.77;;;4.20;;
11139;SDS011;5624;49.388;11.350;2023-05-13T04:03:13;5.07;;;3.87;;
11139;SDS011;5624;49.388;11.350;2023-05-13T04:05:44;5.47;;;4.30;;
11139;SDS011;5624;49.388;11.350;2023-05-13T04:08:10;5.13;;;4.40;;
11139;SDS011;5624;49.388;11.350;2023-05-13T04:10:36;5.00;;;4.00;;
11139;SDS011;5624;49.388;11.350;2023-05-13T04:13:02;5.23;;;4.30;;
11139;SDS011;5624;49.388;11.350;2023-05-13T04:15:28;6.47;;;4.23;;
11139;SDS011;5624;49.388;11.350;2023-05-13T04:17:55;7.67;;;5.70;;
11139;SDS011;5624;49.388;11.350;2023-05-13T04:20:21;5.77;;;4.87;;
11139;SDS011;5624;49.388;11.350;2023-05-13T04:22:47;6.03;;;5.40;;
11139;SDS011;5624;49.388;11.350;2023-05-13T04:25:13;6.63;;;4.90;;
11139;SDS011;5624;49.388;11.350;2023-05-13T04:27:38;6.67;;;4.53;;
11139;SDS011;5624;49.388;11.350;2023-05-13T04:30:04;5.07;;;3.73;;
11139;SDS011;5624;49.388;11.350;2023-05-13T04:32:30;6.80;;;4.30;;
11139;SDS011;5624;49.388;11.350;2023-05-13T04:34:56;6.33;;;4.10;;
11139;SDS011;5624;49.388;11.350;2023-05-13T04:37:22;7.13;;;4.50;;
11139;SDS011;5624;49.388;11.350;2023-05-13T04:39:47;4.87;;;3.80;;
11139;SDS011;5624;49.388;11.350;2023-05-13T04:42:13;6.60;;;4.50;;
11139;SDS011;5624;49.388;11.350;2023-05-13T04:44:39;6.50;;;4.90;;
11139;SDS011;5624;49.388;11.350;2023-05-13T04:47:05;5.53;;;4.20;;
11139;SDS011;5624;49.388;11.350;2023-05-13T04:49:31;5.60;;;4.63;;
11139;SDS011;5624;49.388;11.350;2023-05-13T04:51:56;7.07;;;4.43;;
11139;SDS011;5624;49.388;11.350;2023-05-13T04:54:22;6.03;;;4.87;;
11139;SDS011;5624;49.388;11.350;2023-05-13T04:56:48;5.40;;;4.30;;
11139;SDS011;5624;49.388;11.350;2023-05-13T04:59:13;6.27;;;4.70;;
11139;SDS011;5624;49.388;11.350;2023-05-13T05:01:39;6.33;;;4.93;;
11139;SDS011;5624;49.388;11.350;2023-05-13T05:04:05;6.30;;;5.03;;
11139;SDS011;5624;49.388;11.350;2023-05-13T05:06:30;5.43;;;3.73;;
11139;SDS011;5624;49.388;11.350;2023-05-13T05:08:56;6.53;;;4.37;;
11139;SDS011;5624;49.388;11.350;2023-05-13T05:11:22;4.73;;;3.97;;
11139;SDS011;5624;49.388;11.350;2023-05-13T05:13:48;8.20;;;4.40;;
11139;SDS011;5624;49.388;11.350;2023-05-13T05:16:14;5.10;;;3.83;;
11139;SDS011;5624;49.388;11.350;2023-05-13T05:18:40;7.73;;;4.30;;
11139;SDS011;5624;49.388;11.350;2023-05-13T05:21:07;7.63;;;4.53;;
11139;SDS011;5624;49.388;11.350;2023-05-13T05:23:36;7.17;;;4.70;;
11139;SDS011;5624;49.388;11.350;2023-05-13T05:26:01;6.70;;;4.97;;
11139;SDS011;5624;49.388;11.350;2023-05-13T05:28:28;5.63;;;3.90;;
11139;SDS011;5624;49.388;11.350;2023-05-13T05:30:53;5.67;;;4.63;;
11139;SDS011;5624;49.388;11.350;2023-05-13T05:33:19;6.53;;;4.30;;
11139;SDS011;5624;49.388;11.350;2023-05-13T05:35:45;4.83;;;3.90;;
11139;SDS011;5624;49.388;11.350;2023-05-13T05:38:11;7.37;;;4.53;;
11139;SDS011;5624;49.388;11.350;2023-05-13T05:40:38;5.90;;;4.30;;
11139;SDS011;5624;49.388;11.350;2023-05-13T05:43:05;6.53;;;4.40;;
11139;SDS011;5624;49.388;11.350;2023-05-13T05:45:33;5.60;;;4.23;;
11139;SDS011;5624;49.388;11.350;2023-05-13T05:47:59;5.00;;;4.30;;
11139;SDS011;5624;49.388;11.350;2023-05-13T05:50:26;6.50;;;4.30;;
11139;SDS011;5624;49.388;11.350;2023-05-13T05:52:52;5.27;;;3.80;;
11139;SDS011;5624;49.388;11.350;2023-05-13T05:55:18;5.70;;;4.27;;
11139;SDS011;5624;49.388;11.350;2023-05-13T05:57:44;4.27;;;3.80;;
11139;SDS011;5624;49.388;11.350;2023-05-13T06:00:10;8.20;;;4.77;;
11139;SDS011;5624;49.388;11.350;2023-05-13T06:02:36;5.60;;;4.33;;
11139;SDS011;5624;49.388;11.350;2023-05-13T06:05:02;7.20;;;4.20;;
11139;SDS011;5624;49.388;11.350;2023-05-13T06:07:27;4.53;;;3.93;;
11139;SDS011;5624;49.388;11.350;2023-05-13T06:09:53;7.17;;;4.60;;
11139;SDS011;5624;49.388;11.350;2023-05-13T06:12:19;5.83;;;4.50;;
11139;SDS011;5624;49.388;11.350;2023-05-13T06:14:46;7.03;;;3.83;;
11139;SDS011;5624;49.388;11.350;2023-05-13T06:17:12;5.43;;;4.30;;
11139;SDS011;5624;49.388;11.350;2023-05-13T06:19:39;7.33;;;4.37;;
11139;SDS011;5624;49.388;11.350;2023-05-13T06:22:06;4.90;;;4.07;;
11139;SDS011;5624;49.388;11.350;2023-05-13T06:24:35;7.27;;;3.93;;
11139;SDS011;5624;49.388;11.350;2023-05-13T06:27:01;5.63;;;4.13;;
11139;SDS011;5624;49.388;11.350;2023-05-13T06:29:27;6.63;;;3.73;;
11139;SDS011;5624;49.388;11.350;2023-05-13T06:31:53;5.33;;;4.33;;
11139;SDS011;5624;49.388;11.350;2023-05-13T06:34:19;6.60;;;3.80;;
11139;SDS011;5624;49.388;11.350;2023-05-13T06:36:44;6.40;;;4.27;;
11139;SDS011;5624;49.388;11.350;2023-05-13T06:39:10;5.37;;;3.77;;
11139;SDS011;5624;49.388;11.350;2023-05-13T06:41:37;5.97;;;4.47;;
11139;SDS011;5624;49.388;11.350;2023-05-13T06:44:03;5.20;;;4.07;;
11139;SDS011;5624;49.388;11.350;2023-05-13T06:46:30;4.60;;;4.00;;
11139;SDS011;5624;49.388;11.350;2023-05-13T06:48:56;6.27;;;3.90;;
11139;SDS011;5624;49.388;11.350;2023-05-13T06:51:23;5.53;;;3.30;;
11139;SDS011;5624;49.388;11.350;2023-05-13T06:53:51;6.70;;;4.50;;
11139;SDS011;5624;49.388;11.350;2023-05-13T06:56:18;3.93;;;3.40;;
11139;SDS011;5624;49.388;11.350;2023-05-13T06:58:46;6.50;;;3.80;;
11139;SDS011;5624;49.388;11.350;2023-05-13T07:01:13;4.87;;;4.10;;
11139;SDS011;5624;49.388;11.350;2023-05-13T07:03:39;7.60;;;4.13;;
11139;SDS011;5624;49.388;11.350;2023-05-13T07:06:04;5.03;;;3.30;;
11139;SDS011;5624;49.388;11.350;2023-05-13T07:08:30;4.53;;;3.50;;
11139;SDS011;5624;49.388;11.350;2023-05-13T07:10:55;4.87;;;3.40;;
11139;SDS011;5624;49.388;11.350;2023-05-13T07:13:21;7.00;;;3.77;;
11139;SDS011;5624;49.388;11.350;2023-05-13T07:15:47;4.70;;;3.67;;
11139;SDS011;5624;49.388;11.350;2023-05-13T07:18:12;5.07;;;4.00;;
11139;SDS011;5624;49.388;11.350;2023-05-13T07:20:38;4.47;;;3.30;;
11139;SDS011;5624;49.388;11.350;2023-05-13T07:23:04;5.70;;;3.90;;
11139;SDS011;5624;49.388;11.350;2023-05-13T07:25:29;6.10;;;3.43;;
11139;SDS011;5624;49.388;11.350;2023-05-13T07:27:55;4.50;;;3.40;;
11139;SDS011;5624;49.388;11.350;2023-05-13T07:30:21;4.50;;;3.60;;
11139;SDS011;5624;49.388;11.350;2023-05-13T07:32:46;5.57;;;3.23;;
11139;SDS011;5624;49.388;11.350;2023-05-13T07:35:12;4.17;;;3.77;;
11139;SDS011;5624;49.388;11.350;2023-05-13T07:37:38;5.70;;;3.90;;
11139;SDS011;5624;49.388;11.350;2023-05-13T07:40:04;5.57;;;3.97;;
11139;SDS011;5624;49.388;11.350;2023-05-13T07:42:30;5.07;;;3.57;;
11139;SDS011;5624;49.388;11.350;2023-05-13T07:44:56;6.60;;;4.53;;
11139;SDS011;5624;49.388;11.350;2023-05-13T07:47:22;6.63;;;3.90;;
11139;SDS011;5624;49.388;11.350;2023-05-13T07:49:48;5.40;;;3.10;;
11139;SDS011;5624;49.388;11.350;2023-05-13T07:52:14;7.47;;;4.03;;
11139;SDS011;5624;49.388;11.350;2023-05-13T07:54:40;4.67;;;3.87;;
11139;SDS011;5624;49.388;11.350;2023-05-13T07:57:05;5.00;;;4.17;;
11139;SDS011;5624;49.388;11.350;2023-05-13T07:59:31;4.13;;;3.23;;
11139;SDS011;5624;49.388;11.350;2023-05-13T08:01:57;5.43;;;3.93;;
11139;SDS011;5624;49.388;11.350;2023-05-13T08:04:22;4.17;;;3.50;;
11139;SDS011;5624;49.388;11.350;2023-05-13T08:06:48;5.27;;;3.47;;
11139;SDS011;5624;49.388;11.350;2023-05-13T08:09:14;4.43;;;3.27;;
11139;SDS011;5624;49.388;11.350;2023-05-13T08:11:39;4.30;;;3.03;;
11139;SDS011;5624;49.388;11.350;2023-05-13T08:14:05;7.30;;;3.47;;
11139;SDS011;5624;49.388;11.350;2023-05-13T08:16:33;5.13;;;3.10;;
11139;SDS011;5624;49.388;11.350;2023-05-13T08:19:00;4.60;;;3.17;;
11139;SDS011;5624;49.388;11.350;2023-05-13T08:21:25;4.80;;;3.40;;
11139;SDS011;5624;49.388;11.350;2023-05-13T08:23:51;5.17;;;3.40;;
11139;SDS011;5624;49.388;11.350;2023-05-13T08:26:16;4.47;;;3.60;;
11139;SDS011;5624;49.388;11.350;2023-05-13T08:28:42;5.83;;;2.90;;
11139;SDS011;5624;49.388;11.350;2023-05-13T08:31:10;4.87;;;3.40;;
11139;SDS011;5624;49.388;11.350;2023-05-13T08:33:36;4.20;;;3.33;;
11139;SDS011;5624;49.388;11.350;2023-05-13T08:36:01;4.07;;;3.30;;
11139;SDS011;5624;49.388;11.350;2023-05-13T08:38:27;5.30;;;3.33;;
11139;SDS011;5624;49.388;11.350;2023-05-13T08:40:53;4.27;;;3.37;;
11139;SDS011;5624;49.388;11.350;2023-05-13T08:43:18;4.30;;;3.20;;
11139;SDS011;5624;49.388;11.350;2023-05-13T08:45:47;4.70;;;3.63;;
11139;SDS011;5624;49.388;11.350;2023-05-13T08:48:17;4.50;;;3.37;;
11139;SDS011;5624;49.388;11.350;2023-05-13T08:50:43;4.33;;;2.93;;
11139;SDS011;5624;49.388;11.350;2023-05-13T08:53:10;5.30;;;3.20;;
11139;SDS011;5624;49.388;11.350;2023-05-13T08:55:39;5.23;;;2.93;;
11139;SDS011;5624;49.388;11.350;2023-05-13T08:58:05;5.27;;;2.80;;
11139;SDS011;5624;49.388;11.350;2023-05-13T09:00:31;3.37;;;3.00;;
11139;SDS011;5624;49.388;11.350;2023-05-13T09:02:58;4.03;;;3.27;;
11139;SDS011;5624;49.388;11.350;2023-05-13T09:05:24;3.50;;;2.77;;
11139;SDS011;5624;49.388;11.350;2023-05-13T09:07:50;4.70;;;3.23;;
11139;SDS011;5624;49.388;11.350;2023-05-13T09:10:17;4.80;;;3.40;;
11139;SDS011;5624;49.388;11.350;2023-05-13T09:12:45;6.43;;;3.03;;
11139;SDS011;5624;49.388;11.350;2023-05-13T09:17:49;3.67;;;3.00;;
11139;SDS011;5624;49.388;11.350;2023-05-13T09:20:17;4.60;;;3.43;;
11139;SDS011;5624;49.388;11.350;2023-05-13T09:25:13;3.30;;;2.80;;
11139;SDS011;5624;49.388;11.350;2023-05-13T09:27:42;4.07;;;3.00;;
11139;SDS011;5624;49.388;11.350;2023-05-13T09:30:08;4.60;;;3.03;;
11139;SDS011;5624;49.388;11.350;2023-05-13T09:32:35;4.47;;;3.47;;
11139;SDS011;5624;49.388;11.350;2023-05-13T09:35:13;4.47;;;3.13;;
11139;SDS011;5624;49.388;11.350;2023-05-13T09:37:44;4.57;;;3.00;;
11139;SDS011;5624;49.388;11.350;2023-05-13T09:40:16;3.27;;;2.73;;
11139;SDS011;5624;49.388;11.350;2023-05-13T09:42:43;4.13;;;2.90;;
11139;SDS011;5624;49.388;11.350;2023-05-13T09:45:12;4.00;;;3.03;;
11139;SDS011;5624;49.388;11.350;2023-05-13T09:47:39;5.57;;;3.07;;
11139;SDS011;5624;49.388;11.350;2023-05-13T09:50:05;4.03;;;3.10;;
11139;SDS011;5624;49.388;11.350;2023-05-13T09:52:32;4.33;;;3.00;;
11139;SDS011;5624;49.388;11.350;2023-05-13T09:54:59;7.03;;;4.07;;
11139;SDS011;5624;49.388;11.350;2023-05-13T09:57:28;5.47;;;4.10;;
11139;SDS011;5624;49.388;11.350;2023-05-13T09:59:58;8.83;;;5.07;;
11139;SDS011;5624;49.388;11.350;2023-05-13T10:02:25;5.47;;;3.30;;
11139;SDS011;5624;49.388;11.350;2023-05-13T10:04:52;5.67;;;3.50;;
11139;SDS011;5624;49.388;11.350;2023-05-13T10:07:20;3.53;;;2.77;;
11139;SDS011;5624;49.388;11.350;2023-05-13T10:09:49;3.63;;;2.67;;
11139;SDS011;5624;49.388;11.350;2023-05-13T10:12:19;3.77;;;2.73;;
11139;SDS011;5624;49.388;11.350;2023-05-13T10:14:48;3.00;;;2.40;;
11139;SDS011;5624;49.388;11.350;2023-05-13T10:17:16;5.80;;;2.70;;
11139;SDS011;5624;49.388;11.350;2023-05-13T10:19:52;3.80;;;3.00;;
11139;SDS011;5624;49.388;11.350;2023-05-13T10:22:36;3.63;;;3.00;;
11139;SDS011;5624;49.388;11.350;2023-05-13T10:25:02;3.27;;;2.47;;
11139;SDS011;5624;49.388;11.350;2023-05-13T10:27:30;3.47;;;2.73;;
11139;SDS011;5624;49.388;11.350;2023-05-13T10:29:58;3.20;;;2.73;;
11139;SDS011;5624;49.388;11.350;2023-05-13T10:32:26;3.50;;;2.57;;
11139;SDS011;5624;49.388;11.350;2023-05-13T10:35:04;3.83;;;2.57;;
11139;SDS011;5624;49.388;11.350;2023-05-13T10:37:49;3.07;;;2.47;;
11139;SDS011;5624;49.388;11.350;2023-05-13T10:43:28;4.07;;;2.50;;
11139;SDS011;5624;49.388;11.350;2023-05-13T10:45:55;6.10;;;2.93;;
11139;SDS011;5624;49.388;11.350;2023-05-13T10:48:26;3.77;;;2.67;;
11139;SDS011;5624;49.388;11.350;2023-05-13T10:51:02;5.00;;;2.47;;
11139;SDS011;5624;49.388;11.350;2023-05-13T10:53:36;3.53;;;2.60;;
11139;SDS011;5624;49.388;11.350;2023-05-13T10:56:08;3.23;;;2.40;;
11139;SDS011;5624;49.388;11.350;2023-05-13T10:58:34;2.87;;;2.33;;
11139;SDS011;5624;49.388;11.350;2023-05-13T11:03:40;3.27;;;2.57;;
11139;SDS011;5624;49.388;11.350;2023-05-13T11:06:17;4.13;;;3.10;;
11139;SDS011;5624;49.388;11.350;2023-05-13T11:09:06;3.23;;;2.40;;
11139;SDS011;5624;49.388;11.350;2023-05-13T11:11:35;2.93;;;2.47;;
11139;SDS011;5624;49.388;11.350;2023-05-13T11:14:04;5.03;;;2.20;;
11139;SDS011;5624;49.388;11.350;2023-05-13T11:16:35;3.00;;;2.47;;
11139;SDS011;5624;49.388;11.350;2023-05-13T11:19:01;3.10;;;2.33;;
11139;SDS011;5624;49.388;11.350;2023-05-13T11:21:32;3.03;;;2.67;;
11139;SDS011;5624;49.388;11.350;2023-05-13T11:24:04;4.20;;;3.00;;
11139;SDS011;5624;49.388;11.350;2023-05-13T11:29:29;3.33;;;2.30;;
11139;SDS011;5624;49.388;11.350;2023-05-13T11:31:55;9.00;;;3.80;;
11139;SDS011;5624;49.388;11.350;2023-05-13T11:34:22;4.27;;;2.80;;
11139;SDS011;5624;49.388;11.350;2023-05-13T11:36:49;5.40;;;2.60;;
11139;SDS011;5624;49.388;11.350;2023-05-13T11:39:20;3.53;;;2.53;;
11139;SDS011;5624;49.388;11.350;2023-05-13T11:41:50;2.03;;;1.83;;
11139;SDS011;5624;49.388;11.350;2023-05-13T11:44:17;4.67;;;2.40;;
11139;SDS011;5624;49.388;11.350;2023-05-13T11:46:47;2.27;;;2.03;;
11139;SDS011;5624;49.388;11.350;2023-05-13T11:54:51;3.27;;;2.00;;
11139;SDS011;5624;49.388;11.350;2023-05-13T11:57:22;2.87;;;2.27;;
11139;SDS011;5624;49.388;11.350;2023-05-13T12:02:26;2.60;;;2.07;;
11139;SDS011;5624;49.388;11.350;2023-05-13T12:04:59;1.83;;;1.63;;
11139;SDS011;5624;49.388;11.350;2023-05-13T12:07:26;2.83;;;2.20;;
11139;SDS011;5624;49.388;11.350;2023-05-13T12:09:52;3.47;;;2.20;;
11139;SDS011;5624;49.388;11.350;2023-05-13T12:12:20;3.90;;;2.28;;
11139;SDS011;5624;49.388;11.350;2023-05-13T12:14:46;5.13;;;2.60;;
11139;SDS011;5624;49.388;11.350;2023-05-13T12:17:15;2.90;;;2.03;;
11139;SDS011;5624;49.388;11.350;2023-05-13T12:22:54;2.72;;;2.05;;
11139;SDS011;5624;49.388;11.350;2023-05-13T12:30:38;3.30;;;1.97;;
11139;SDS011;5624;49.388;11.350;2023-05-13T12:33:11;2.75;;;2.08;;
11139;SDS011;5624;49.388;11.350;2023-05-13T12:35:41;3.60;;;2.33;;
11139;SDS011;5624;49.388;11.350;2023-05-13T12:38:07;2.47;;;1.50;;
11139;SDS011;5624;49.388;11.350;2023-05-13T12:40:37;2.03;;;1.80;;
11139;SDS011;5624;49.388;11.350;2023-05-13T12:43:03;2.95;;;1.90;;
11139;SDS011;5624;49.388;11.350;2023-05-13T12:45:29;2.00;;;1.80;;
11139;SDS011;5624;49.388;11.350;2023-05-13T12:47:56;2.00;;;1.83;;
11139;SDS011;5624;49.388;11.350;2023-05-13T12:50:23;2.60;;;1.60;;
11139;SDS011;5624;49.388;11.350;2023-05-13T12:52:49;1.88;;;1.77;;
11139;SDS011;5624;49.388;11.350;2023-05-13T12:55:16;2.42;;;1.60;;
11139;SDS011;5624;49.388;11.350;2023-05-13T12:57:41;1.80;;;1.70;;
11139;SDS011;5624;49.388;11.350;2023-05-13T13:00:08;2.53;;;2.00;;
11139;SDS011;5624;49.388;11.350;2023-05-13T13:02:35;1.88;;;1.60;;
11139;SDS011;5624;49.388;11.350;2023-05-13T13:05:01;2.75;;;1.98;;
11139;SDS011;5624;49.388;11.350;2023-05-13T13:07:27;2.38;;;2.17;;
11139;SDS011;5624;49.388;11.350;2023-05-13T13:09:53;3.30;;;1.77;;
11139;SDS011;5624;49.388;11.350;2023-05-13T13:12:20;3.25;;;1.83;;
11139;SDS011;5624;49.388;11.350;2023-05-13T13:14:45;2.78;;;2.33;;
11139;SDS011;5624;49.388;11.350;2023-05-13T13:17:12;1.88;;;1.77;;
11139;SDS011;5624;49.388;11.350;2023-05-13T13:19:37;2.72;;;2.10;;
11139;SDS011;5624;49.388;11.350;2023-05-13T13:22:03;2.17;;;1.83;;
11139;SDS011;5624;49.388;11.350;2023-05-13T13:24:28;1.70;;;1.60;;
11139;SDS011;5624;49.388;11.350;2023-05-13T13:26:54;2.53;;;1.90;;
11139;SDS011;5624;49.388;11.350;2023-05-13T13:29:20;2.88;;;1.50;;
11139;SDS011;5624;49.388;11.350;2023-05-13T13:31:45;2.28;;;1.75;;
11139;SDS011;5624;49.388;11.350;2023-05-13T13:34:11;1.95;;;1.58;;
11139;SDS011;5624;49.388;11.350;2023-05-13T13:36:37;2.15;;;1.70;;
11139;SDS011;5624;49.388;11.350;2023-05-13T13:39:03;1.67;;;1.48;;
11139;SDS011;5624;49.388;11.350;2023-05-13T13:41:29;1.60;;;1.50;;
11139;SDS011;5624;49.388;11.350;2023-05-13T13:43:54;1.88;;;1.50;;
11139;SDS011;5624;49.388;11.350;2023-05-13T13:46:20;1.73;;;1.33;;
11139;SDS011;5624;49.388;11.350;2023-05-13T13:48:46;1.83;;;1.40;;
11139;SDS011;5624;49.388;11.350;2023-05-13T13:51:11;1.52;;;1.42;;
11139;SDS011;5624;49.388;11.350;2023-05-13T13:53:37;2.22;;;1.52;;
11139;SDS011;5624;49.388;11.350;2023-05-13T13:56:02;1.70;;;1.55;;
11139;SDS011;5624;49.388;11.350;2023-05-13T13:58:28;1.90;;;1.55;;
11139;SDS011;5624;49.388;11.350;2023-05-13T14:00:54;1.88;;;1.60;;
11139;SDS011;5624;49.388;11.350;2023-05-13T14:03:19;2.55;;;1.92;;
11139;SDS011;5624;49.388;11.350;2023-05-13T14:05:45;2.78;;;2.03;;
11139;SDS011;5624;49.388;11.350;2023-05-13T14:08:10;1.70;;;1.40;;
11139;SDS011;5624;49.388;11.350;2023-05-13T14:10:36;2.70;;;1.55;;
11139;SDS011;5624;49.388;11.350;2023-05-13T14:13:02;3.42;;;1.77;;
11139;SDS011;5624;49.388;11.350;2023-05-13T14:15:27;1.50;;;1.40;;
11139;SDS011;5624;49.388;11.350;2023-05-13T14:17:54;1.80;;;1.70;;
11139;SDS011;5624;49.388;11.350;2023-05-13T14:20:21;1.60;;;1.48;;
11139;SDS011;5624;49.388;11.350;2023-05-13T14:22:47;1.50;;;1.40;;
11139;SDS011;5624;49.388;11.350;2023-05-13T14:25:13;1.65;;;1.55;;
11139;SDS011;5624;49.388;11.350;2023-05-13T14:27:39;1.70;;;1.60;;
11139;SDS011;5624;49.388;11.350;2023-05-13T14:30:05;2.30;;;1.50;;
11139;SDS011;5624;49.388;11.350;2023-05-13T14:32:33;3.30;;;1.38;;
11139;SDS011;5624;49.388;11.350;2023-05-13T14:34:59;1.75;;;1.42;;
11139;SDS011;5624;49.388;11.350;2023-05-13T14:37:25;3.00;;;1.70;;
11139;SDS011;5624;49.388;11.350;2023-05-13T14:39:50;2.60;;;1.58;;
11139;SDS011;5624;49.388;11.350;2023-05-13T14:42:16;1.60;;;1.50;;
11139;SDS011;5624;49.388;11.350;2023-05-13T14:44:42;1.90;;;1.40;;
11139;SDS011;5624;49.388;11.350;2023-05-13T14:47:07;1.30;;;1.20;;
11139;SDS011;5624;49.388;11.350;2023-05-13T14:49:34;1.58;;;1.48;;
11139;SDS011;5624;49.388;11.350;2023-05-13T14:51:59;1.73;;;1.63;;
11139;SDS011;5624;49.388;11.350;2023-05-13T14:54:26;1.60;;;1.50;;
11139;SDS011;5624;49.388;11.350;2023-05-13T14:56:52;1.45;;;1.30;;
11139;SDS011;5624;49.388;11.350;2023-05-13T14:59:17;1.52;;;1.30;;
11139;SDS011;5624;49.388;11.350;2023-05-13T15:01:43;1.60;;;1.50;;
11139;SDS011;5624;49.388;11.350;2023-05-13T15:04:09;1.90;;;1.58;;
11139;SDS011;5624;49.388;11.350;2023-05-13T15:06:35;1.58;;;1.42;;
11139;SDS011;5624;49.388;11.350;2023-05-13T15:09:02;3.97;;;1.70;;
11139;SDS011;5624;49.388;11.350;2023-05-13T15:11:29;2.42;;;1.77;;
11139;SDS011;5624;49.388;11.350;2023-05-13T15:13:55;2.50;;;1.70;;
11139;SDS011;5624;49.388;11.350;2023-05-13T15:16:21;2.30;;;1.40;;
11139;SDS011;5624;49.388;11.350;2023-05-13T15:18:46;1.67;;;1.50;;
11139;SDS011;5624;49.388;11.350;2023-05-13T15:21:13;1.55;;;1.45;;
11139;SDS011;5624;49.388;11.350;2023-05-13T15:23:39;1.98;;;1.70;;
11139;SDS011;5624;49.388;11.350;2023-05-13T15:26:05;2.00;;;1.77;;